sensor_id;sensor_type;location;lat;lon;timestamp;P1;durP1;ratioP1;P2;durP2;ratioP2
24206;SDS011;12351;52.284;9.160;2023-11-21T00:02:19;22.15;;;10.08;;
24206;SDS011;12351;52.284;9.160;2023-11-21T00:05:07;23.27;;;10.15;;
24206;SDS011;12351;52.284;9.160;2023-11-21T00:10:47;23.73;;;10.53;;
24206;SDS011;12351;52.284;9.160;2023-11-21T00:13:41;23.30;;;10.60;;
24206;SDS011;12351;52.284;9.160;2023-11-21T00:16:29;27.30;;;10.98;;
24206;SDS011;12351;52.284;9.160;2023-11-21T00:19:16;23.02;;;11.43;;
24206;SDS011;12351;52.284;9.160;2023-11-21T00:22:05;24.70;;;11.50;;
24206;SDS011;12351;52.284;9.160;2023-11-21T00:24:52;32.10;;;12.65;;
24206;SDS011;12351;52.284;9.160;2023-11-21T00:27:44;27.05;;;12.50;;
24206;SDS011;12351;52.284;9.160;2023-11-21T00:30:31;30.25;;;13.08;;
24206;SDS011;12351;52.284;9.160;2023-11-21T00:33:21;29.32;;;13.43;;
24206;SDS011;12351;52.284;9.160;2023-11-21T00:36:11;29.23;;;12.93;;
24206;SDS011;12351;52.284;9.160;2023-11-21T00:39:02;22.37;;;12.73;;
24206;SDS011;12351;52.284;9.160;2023-11-21T00:41:50;29.15;;;13.13;;
24206;SDS011;12351;52.284;9.160;2023-11-21T00:44:43;30.32;;;13.62;;
24206;SDS011;12351;52.284;9.160;2023-11-21T00:47:31;30.10;;;14.25;;
24206;SDS011;12351;52.284;9.160;2023-11-21T00:50:18;30.23;;;13.25;;
24206;SDS011;12351;52.284;9.160;2023-11-21T00:53:05;28.95;;;13.75;;
24206;SDS011;12351;52.284;9.160;2023-11-21T00:55:55;30.62;;;14.28;;
24206;SDS011;12351;52.284;9.160;2023-11-21T00:58:44;33.13;;;14.13;;
24206;SDS011;12351;52.284;9.160;2023-11-21T01:01:34;25.95;;;13.50;;
24206;SDS011;12351;52.284;9.160;2023-11-21T01:04:26;31.02;;;14.07;;
24206;SDS011;12351;52.284;9.160;2023-11-21T01:07:11;25.32;;;13.55;;
24206;SDS011;12351;52.284;9.160;2023-11-21T01:09:58;31.75;;;14.28;;
24206;SDS011;12351;52.284;9.160;2023-11-21T01:12:48;29.00;;;14.10;;
24206;SDS011;12351;52.284;9.160;2023-11-21T01:15:36;37.10;;;14.87;;
24206;SDS011;12351;52.284;9.160;2023-11-21T01:18:24;30.85;;;14.45;;
24206;SDS011;12351;52.284;9.160;2023-11-21T01:21:11;32.88;;;14.93;;
24206;SDS011;12351;52.284;9.160;2023-11-21T01:23:59;35.25;;;15.53;;
24206;SDS011;12351;52.284;9.160;2023-11-21T01:26:48;33.50;;;15.95;;
24206;SDS011;12351;52.284;9.160;2023-11-21T01:29:35;34.83;;;15.08;;
24206;SDS011;12351;52.284;9.160;2023-11-21T01:32:25;38.33;;;16.23;;
24206;SDS011;12351;52.284;9.160;2023-11-21T01:35:13;40.88;;;16.93;;
24206;SDS011;12351;52.284;9.160;2023-11-21T01:38:02;38.08;;;16.32;;
24206;SDS011;12351;52.284;9.160;2023-11-21T01:40:49;42.53;;;15.83;;
24206;SDS011;12351;52.284;9.160;2023-11-21T01:43:36;31.75;;;15.50;;
24206;SDS011;12351;52.284;9.160;2023-11-21T01:46:23;36.77;;;15.90;;
24206;SDS011;12351;52.284;9.160;2023-11-21T01:49:11;35.43;;;15.03;;
24206;SDS011;12351;52.284;9.160;2023-11-21T01:51:59;44.00;;;16.60;;
24206;SDS011;12351;52.284;9.160;2023-11-21T01:54:48;38.73;;;15.65;;
24206;SDS011;12351;52.284;9.160;2023-11-21T01:57:35;38.88;;;16.30;;
24206;SDS011;12351;52.284;9.160;2023-11-21T02:00:23;39.33;;;16.05;;
24206;SDS011;12351;52.284;9.160;2023-11-21T02:03:11;34.73;;;15.15;;
24206;SDS011;12351;52.284;9.160;2023-11-21T02:05:58;43.42;;;16.60;;
24206;SDS011;12351;52.284;9.160;2023-11-21T02:08:45;34.03;;;15.45;;
24206;SDS011;12351;52.284;9.160;2023-11-21T02:11:32;35.55;;;16.23;;
24206;SDS011;12351;52.284;9.160;2023-11-21T02:14:21;40.55;;;16.07;;
24206;SDS011;12351;52.284;9.160;2023-11-21T02:17:08;38.58;;;15.88;;
24206;SDS011;12351;52.284;9.160;2023-11-21T02:22:50;35.48;;;14.50;;
24206;SDS011;12351;52.284;9.160;2023-11-21T02:25:40;37.55;;;15.43;;
24206;SDS011;12351;52.284;9.160;2023-11-21T02:28:27;35.60;;;14.18;;
24206;SDS011;12351;52.284;9.160;2023-11-21T02:31:16;29.20;;;13.78;;
24206;SDS011;12351;52.284;9.160;2023-11-21T02:34:04;30.50;;;14.75;;
24206;SDS011;12351;52.284;9.160;2023-11-21T02:36:51;36.58;;;15.30;;
24206;SDS011;12351;52.284;9.160;2023-11-21T02:39:39;34.65;;;14.35;;
24206;SDS011;12351;52.284;9.160;2023-11-21T02:42:27;38.15;;;14.45;;
24206;SDS011;12351;52.284;9.160;2023-11-21T02:45:14;38.88;;;14.30;;
24206;SDS011;12351;52.284;9.160;2023-11-21T02:48:02;34.40;;;14.10;;
24206;SDS011;12351;52.284;9.160;2023-11-21T02:50:49;36.70;;;14.65;;
24206;SDS011;12351;52.284;9.160;2023-11-21T02:53:38;34.08;;;14.78;;
24206;SDS011;12351;52.284;9.160;2023-11-21T02:56:31;35.78;;;14.68;;
24206;SDS011;12351;52.284;9.160;2023-11-21T02:59:24;38.73;;;14.35;;
24206;SDS011;12351;52.284;9.160;2023-11-21T03:02:14;34.75;;;15.35;;
24206;SDS011;12351;52.284;9.160;2023-11-21T03:05:03;33.30;;;15.05;;
24206;SDS011;12351;52.284;9.160;2023-11-21T03:07:51;34.27;;;15.05;;
24206;SDS011;12351;52.284;9.160;2023-11-21T03:10:43;36.58;;;14.90;;
24206;SDS011;12351;52.284;9.160;2023-11-21T03:13:29;33.35;;;14.80;;
24206;SDS011;12351;52.284;9.160;2023-11-21T03:16:18;36.60;;;15.35;;
24206;SDS011;12351;52.284;9.160;2023-11-21T03:19:05;36.10;;;16.05;;
24206;SDS011;12351;52.284;9.160;2023-11-21T03:21:53;40.67;;;15.68;;
24206;SDS011;12351;52.284;9.160;2023-11-21T03:24:42;37.40;;;15.03;;
24206;SDS011;12351;52.284;9.160;2023-11-21T03:27:30;37.98;;;14.80;;
24206;SDS011;12351;52.284;9.160;2023-11-21T03:30:20;40.28;;;15.80;;
24206;SDS011;12351;52.284;9.160;2023-11-21T03:33:07;37.20;;;14.58;;
24206;SDS011;12351;52.284;9.160;2023-11-21T03:35:55;39.03;;;14.70;;
24206;SDS011;12351;52.284;9.160;2023-11-21T03:38:48;34.27;;;15.00;;
24206;SDS011;12351;52.284;9.160;2023-11-21T03:41:35;33.65;;;14.87;;
24206;SDS011;12351;52.284;9.160;2023-11-21T03:44:24;41.42;;;14.87;;
24206;SDS011;12351;52.284;9.160;2023-11-21T03:47:16;41.18;;;14.47;;
24206;SDS011;12351;52.284;9.160;2023-11-21T03:50:05;38.67;;;14.38;;
24206;SDS011;12351;52.284;9.160;2023-11-21T03:52:54;39.88;;;15.15;;
24206;SDS011;12351;52.284;9.160;2023-11-21T03:55:41;43.20;;;15.88;;
24206;SDS011;12351;52.284;9.160;2023-11-21T03:58:33;44.15;;;15.75;;
24206;SDS011;12351;52.284;9.160;2023-11-21T04:01:20;36.45;;;14.73;;
24206;SDS011;12351;52.284;9.160;2023-11-21T04:04:09;41.28;;;15.55;;
24206;SDS011;12351;52.284;9.160;2023-11-21T04:06:58;38.48;;;16.15;;
24206;SDS011;12351;52.284;9.160;2023-11-21T04:09:49;42.38;;;15.28;;
24206;SDS011;12351;52.284;9.160;2023-11-21T04:12:38;47.85;;;16.07;;
24206;SDS011;12351;52.284;9.160;2023-11-21T04:15:27;46.53;;;14.87;;
24206;SDS011;12351;52.284;9.160;2023-11-21T04:18:17;43.15;;;15.83;;
24206;SDS011;12351;52.284;9.160;2023-11-21T04:21:04;40.35;;;16.45;;
24206;SDS011;12351;52.284;9.160;2023-11-21T04:23:54;43.35;;;15.03;;
24206;SDS011;12351;52.284;9.160;2023-11-21T04:26:43;41.90;;;16.25;;
24206;SDS011;12351;52.284;9.160;2023-11-21T04:29:32;43.02;;;17.20;;
24206;SDS011;12351;52.284;9.160;2023-11-21T04:32:21;43.83;;;16.50;;
24206;SDS011;12351;52.284;9.160;2023-11-21T04:35:11;49.15;;;16.75;;
24206;SDS011;12351;52.284;9.160;2023-11-21T04:37:59;48.08;;;15.50;;
24206;SDS011;12351;52.284;9.160;2023-11-21T04:40:48;42.10;;;15.72;;
24206;SDS011;12351;52.284;9.160;2023-11-21T04:43:40;45.17;;;16.15;;
24206;SDS011;12351;52.284;9.160;2023-11-21T04:46:27;43.15;;;15.65;;
24206;SDS011;12351;52.284;9.160;2023-11-21T04:49:16;43.48;;;17.05;;
24206;SDS011;12351;52.284;9.160;2023-11-21T04:52:03;42.62;;;15.30;;
24206;SDS011;12351;52.284;9.160;2023-11-21T04:54:53;44.55;;;15.35;;
24206;SDS011;12351;52.284;9.160;2023-11-21T04:57:42;42.50;;;15.40;;
24206;SDS011;12351;52.284;9.160;2023-11-21T05:00:29;36.20;;;14.03;;
24206;SDS011;12351;52.284;9.160;2023-11-21T05:03:18;39.92;;;15.18;;
24206;SDS011;12351;52.284;9.160;2023-11-21T05:06:06;41.35;;;15.50;;
24206;SDS011;12351;52.284;9.160;2023-11-21T05:08:55;38.45;;;14.30;;
24206;SDS011;12351;52.284;9.160;2023-11-21T05:11:44;39.45;;;13.50;;
24206;SDS011;12351;52.284;9.160;2023-11-21T05:14:33;32.03;;;12.45;;
24206;SDS011;12351;52.284;9.160;2023-11-21T05:17:21;36.58;;;12.80;;
24206;SDS011;12351;52.284;9.160;2023-11-21T05:20:10;30.10;;;12.03;;
24206;SDS011;12351;52.284;9.160;2023-11-21T05:23:00;34.43;;;13.22;;
24206;SDS011;12351;52.284;9.160;2023-11-21T05:25:50;35.70;;;12.78;;
24206;SDS011;12351;52.284;9.160;2023-11-21T05:28:36;30.57;;;11.83;;
24206;SDS011;12351;52.284;9.160;2023-11-21T05:31:25;30.05;;;11.93;;
24206;SDS011;12351;52.284;9.160;2023-11-21T05:34:12;32.00;;;11.68;;
24206;SDS011;12351;52.284;9.160;2023-11-21T05:37:00;33.95;;;11.80;;
24206;SDS011;12351;52.284;9.160;2023-11-21T05:39:49;27.70;;;11.15;;
24206;SDS011;12351;52.284;9.160;2023-11-21T05:42:36;32.70;;;12.03;;
24206;SDS011;12351;52.284;9.160;2023-11-21T05:45:23;31.35;;;11.63;;
24206;SDS011;12351;52.284;9.160;2023-11-21T05:48:11;28.23;;;12.23;;
24206;SDS011;12351;52.284;9.160;2023-11-21T05:50:59;28.85;;;11.03;;
24206;SDS011;12351;52.284;9.160;2023-11-21T05:53:46;27.30;;;11.33;;
24206;SDS011;12351;52.284;9.160;2023-11-21T05:56:34;28.73;;;11.83;;
24206;SDS011;12351;52.284;9.160;2023-11-21T05:59:21;28.02;;;12.15;;
24206;SDS011;12351;52.284;9.160;2023-11-21T06:02:08;28.30;;;11.30;;
24206;SDS011;12351;52.284;9.160;2023-11-21T06:04:55;25.32;;;11.05;;
24206;SDS011;12351;52.284;9.160;2023-11-21T06:07:42;22.02;;;9.35;;
24206;SDS011;12351;52.284;9.160;2023-11-21T06:10:29;19.65;;;8.60;;
24206;SDS011;12351;52.284;9.160;2023-11-21T06:13:18;23.07;;;9.90;;
24206;SDS011;12351;52.284;9.160;2023-11-21T06:16:06;25.40;;;10.25;;
24206;SDS011;12351;52.284;9.160;2023-11-21T06:18:54;17.07;;;7.72;;
24206;SDS011;12351;52.284;9.160;2023-11-21T06:21:45;25.50;;;10.70;;
24206;SDS011;12351;52.284;9.160;2023-11-21T06:24:32;18.67;;;9.35;;
24206;SDS011;12351;52.284;9.160;2023-11-21T06:27:19;19.35;;;9.20;;
24206;SDS011;12351;52.284;9.160;2023-11-21T06:30:08;21.62;;;9.58;;
24206;SDS011;12351;52.284;9.160;2023-11-21T06:32:57;21.40;;;9.73;;
24206;SDS011;12351;52.284;9.160;2023-11-21T06:35:45;20.17;;;9.03;;
24206;SDS011;12351;52.284;9.160;2023-11-21T06:38:32;22.52;;;9.43;;
24206;SDS011;12351;52.284;9.160;2023-11-21T06:41:19;18.73;;;8.95;;
24206;SDS011;12351;52.284;9.160;2023-11-21T06:44:06;18.77;;;8.53;;
24206;SDS011;12351;52.284;9.160;2023-11-21T06:46:54;16.23;;;7.42;;
24206;SDS011;12351;52.284;9.160;2023-11-21T06:49:42;16.05;;;7.10;;
24206;SDS011;12351;52.284;9.160;2023-11-21T06:52:31;17.10;;;7.40;;
24206;SDS011;12351;52.284;9.160;2023-11-21T06:55:18;15.35;;;7.40;;
24206;SDS011;12351;52.284;9.160;2023-11-21T06:58:05;15.68;;;7.17;;
24206;SDS011;12351;52.284;9.160;2023-11-21T07:00:52;16.07;;;7.45;;
24206;SDS011;12351;52.284;9.160;2023-11-21T07:03:42;18.42;;;7.33;;
24206;SDS011;12351;52.284;9.160;2023-11-21T07:06:29;14.95;;;6.83;;
24206;SDS011;12351;52.284;9.160;2023-11-21T07:09:16;15.23;;;6.60;;
24206;SDS011;12351;52.284;9.160;2023-11-21T07:12:06;11.25;;;5.50;;
24206;SDS011;12351;52.284;9.160;2023-11-21T07:14:53;9.60;;;5.00;;
24206;SDS011;12351;52.284;9.160;2023-11-21T07:17:42;10.38;;;4.92;;
24206;SDS011;12351;52.284;9.160;2023-11-21T07:20:30;10.05;;;5.15;;
24206;SDS011;12351;52.284;9.160;2023-11-21T07:23:17;9.45;;;4.75;;
24206;SDS011;12351;52.284;9.160;2023-11-21T07:26:04;8.25;;;4.28;;
24206;SDS011;12351;52.284;9.160;2023-11-21T07:28:53;9.43;;;4.53;;
24206;SDS011;12351;52.284;9.160;2023-11-21T07:31:42;8.63;;;4.30;;
24206;SDS011;12351;52.284;9.160;2023-11-21T07:34:29;9.03;;;4.47;;
24206;SDS011;12351;52.284;9.160;2023-11-21T07:37:17;8.70;;;4.53;;
24206;SDS011;12351;52.284;9.160;2023-11-21T07:40:04;7.92;;;4.42;;
24206;SDS011;12351;52.284;9.160;2023-11-21T07:42:53;10.28;;;4.85;;
24206;SDS011;12351;52.284;9.160;2023-11-21T07:45:42;8.00;;;4.87;;
24206;SDS011;12351;52.284;9.160;2023-11-21T07:48:31;17.95;;;6.05;;
24206;SDS011;12351;52.284;9.160;2023-11-21T07:51:19;19.37;;;6.87;;
24206;SDS011;12351;52.284;9.160;2023-11-21T07:54:07;86.05;;;7.92;;
24206;SDS011;12351;52.284;9.160;2023-11-21T07:56:55;133.12;;;8.00;;
24206;SDS011;12351;52.284;9.160;2023-11-21T07:59:46;113.37;;;7.85;;
24206;SDS011;12351;52.284;9.160;2023-11-21T08:02:31;53.23;;;6.55;;
24206;SDS011;12351;52.284;9.160;2023-11-21T08:05:20;204.97;;;7.85;;
24206;SDS011;12351;52.284;9.160;2023-11-21T08:08:09;84.77;;;5.95;;
24206;SDS011;12351;52.284;9.160;2023-11-21T08:10:57;25.95;;;4.60;;
24206;SDS011;12351;52.284;9.160;2023-11-21T08:13:45;112.68;;;5.78;;
24206;SDS011;12351;52.284;9.160;2023-11-21T08:16:33;11.15;;;5.90;;
24206;SDS011;12351;52.284;9.160;2023-11-21T08:19:25;12.65;;;6.05;;
24206;SDS011;12351;52.284;9.160;2023-11-21T08:22:13;10.60;;;5.65;;
24206;SDS011;12351;52.284;9.160;2023-11-21T08:25:05;8.70;;;4.22;;
24206;SDS011;12351;52.284;9.160;2023-11-21T08:27:53;8.25;;;4.17;;
24206;SDS011;12351;52.284;9.160;2023-11-21T08:30:41;7.45;;;4.05;;
24206;SDS011;12351;52.284;9.160;2023-11-21T08:33:28;9.35;;;4.47;;
24206;SDS011;12351;52.284;9.160;2023-11-21T08:36:18;6.97;;;3.92;;
24206;SDS011;12351;52.284;9.160;2023-11-21T08:39:08;7.40;;;5.00;;
24206;SDS011;12351;52.284;9.160;2023-11-21T08:41:57;9.58;;;5.28;;
24206;SDS011;12351;52.284;9.160;2023-11-21T08:44:45;8.08;;;5.10;;
24206;SDS011;12351;52.284;9.160;2023-11-21T08:47:34;8.05;;;4.65;;
24206;SDS011;12351;52.284;9.160;2023-11-21T08:50:21;5.75;;;4.12;;
24206;SDS011;12351;52.284;9.160;2023-11-21T08:53:11;6.90;;;4.10;;
24206;SDS011;12351;52.284;9.160;2023-11-21T08:55:58;9.53;;;4.90;;
24206;SDS011;12351;52.284;9.160;2023-11-21T08:58:50;8.75;;;5.30;;
24206;SDS011;12351;52.284;9.160;2023-11-21T09:01:39;9.80;;;5.60;;
24206;SDS011;12351;52.284;9.160;2023-11-21T09:04:26;12.30;;;5.80;;
24206;SDS011;12351;52.284;9.160;2023-11-21T09:07:15;10.70;;;5.37;;
24206;SDS011;12351;52.284;9.160;2023-11-21T09:10:04;7.83;;;4.95;;
24206;SDS011;12351;52.284;9.160;2023-11-21T09:12:52;7.17;;;5.33;;
24206;SDS011;12351;52.284;9.160;2023-11-21T09:15:41;7.70;;;5.17;;
24206;SDS011;12351;52.284;9.160;2023-11-21T09:18:32;7.65;;;4.70;;
24206;SDS011;12351;52.284;9.160;2023-11-21T09:21:23;7.92;;;5.08;;
24206;SDS011;12351;52.284;9.160;2023-11-21T09:24:11;7.92;;;5.20;;
24206;SDS011;12351;52.284;9.160;2023-11-21T09:26:58;8.30;;;5.15;;
24206;SDS011;12351;52.284;9.160;2023-11-21T09:29:50;7.47;;;5.17;;
24206;SDS011;12351;52.284;9.160;2023-11-21T09:32:37;7.55;;;4.78;;
24206;SDS011;12351;52.284;9.160;2023-11-21T09:35:26;9.35;;;5.60;;
24206;SDS011;12351;52.284;9.160;2023-11-21T09:38:14;9.88;;;5.72;;
24206;SDS011;12351;52.284;9.160;2023-11-21T09:41:02;8.98;;;5.42;;
24206;SDS011;12351;52.284;9.160;2023-11-21T09:43:54;8.83;;;5.83;;
24206;SDS011;12351;52.284;9.160;2023-11-21T09:46:44;10.18;;;5.87;;
24206;SDS011;12351;52.284;9.160;2023-11-21T09:49:34;8.40;;;5.80;;
24206;SDS011;12351;52.284;9.160;2023-11-21T09:52:27;10.20;;;6.47;;
24206;SDS011;12351;52.284;9.160;2023-11-21T09:55:14;8.65;;;5.78;;
24206;SDS011;12351;52.284;9.160;2023-11-21T09:58:05;11.73;;;6.47;;
24206;SDS011;12351;52.284;9.160;2023-11-21T10:00:57;10.10;;;6.42;;
24206;SDS011;12351;52.284;9.160;2023-11-21T10:03:47;11.55;;;7.25;;
24206;SDS011;12351;52.284;9.160;2023-11-21T10:06:36;10.53;;;7.00;;
24206;SDS011;12351;52.284;9.160;2023-11-21T10:09:26;9.25;;;6.03;;
24206;SDS011;12351;52.284;9.160;2023-11-21T10:12:15;12.60;;;6.85;;
24206;SDS011;12351;52.284;9.160;2023-11-21T10:15:02;10.95;;;6.45;;
24206;SDS011;12351;52.284;9.160;2023-11-21T10:17:53;10.82;;;6.37;;
24206;SDS011;12351;52.284;9.160;2023-11-21T10:20:41;10.78;;;6.62;;
24206;SDS011;12351;52.284;9.160;2023-11-21T10:23:30;11.35;;;6.67;;
24206;SDS011;12351;52.284;9.160;2023-11-21T10:26:19;11.80;;;6.10;;
24206;SDS011;12351;52.284;9.160;2023-11-21T10:29:09;9.93;;;6.75;;
24206;SDS011;12351;52.284;9.160;2023-11-21T10:31:58;11.30;;;6.40;;
24206;SDS011;12351;52.284;9.160;2023-11-21T10:34:55;9.83;;;6.35;;
24206;SDS011;12351;52.284;9.160;2023-11-21T10:37:38;10.32;;;6.50;;
24206;SDS011;12351;52.284;9.160;2023-11-21T10:40:27;10.43;;;6.40;;
24206;SDS011;12351;52.284;9.160;2023-11-21T10:43:14;10.48;;;6.55;;
24206;SDS011;12351;52.284;9.160;2023-11-21T10:46:02;8.60;;;5.78;;
24206;SDS011;12351;52.284;9.160;2023-11-21T10:48:52;8.68;;;5.80;;
24206;SDS011;12351;52.284;9.160;2023-11-21T10:51:43;10.48;;;6.62;;
24206;SDS011;12351;52.284;9.160;2023-11-21T10:54:30;11.10;;;6.92;;
24206;SDS011;12351;52.284;9.160;2023-11-21T10:57:18;9.78;;;6.20;;
24206;SDS011;12351;52.284;9.160;2023-11-21T11:00:09;10.10;;;6.65;;
24206;SDS011;12351;52.284;9.160;2023-11-21T11:02:58;11.08;;;6.70;;
24206;SDS011;12351;52.284;9.160;2023-11-21T11:05:48;11.28;;;6.75;;
24206;SDS011;12351;52.284;9.160;2023-11-21T11:11:28;10.85;;;6.67;;
24206;SDS011;12351;52.284;9.160;2023-11-21T11:14:18;11.25;;;6.37;;
24206;SDS011;12351;52.284;9.160;2023-11-21T11:17:08;10.93;;;6.35;;
24206;SDS011;12351;52.284;9.160;2023-11-21T11:19:56;10.75;;;6.78;;
24206;SDS011;12351;52.284;9.160;2023-11-21T11:33:58;8.80;;;5.63;;
24206;SDS011;12351;52.284;9.160;2023-11-21T11:36:48;8.18;;;5.42;;
24206;SDS011;12351;52.284;9.160;2023-11-21T11:39:38;9.80;;;6.00;;
24206;SDS011;12351;52.284;9.160;2023-11-21T11:42:29;10.08;;;6.25;;
24206;SDS011;12351;52.284;9.160;2023-11-21T11:45:18;7.35;;;5.47;;
24206;SDS011;12351;52.284;9.160;2023-11-21T11:48:05;7.92;;;5.40;;
24206;SDS011;12351;52.284;9.160;2023-11-21T11:53:45;9.88;;;5.25;;
24206;SDS011;12351;52.284;9.160;2023-11-21T11:56:33;8.03;;;5.42;;
24206;SDS011;12351;52.284;9.160;2023-11-21T11:59:23;8.40;;;4.92;;
24206;SDS011;12351;52.284;9.160;2023-11-21T12:02:11;7.75;;;5.17;;
24206;SDS011;12351;52.284;9.160;2023-11-21T12:05:00;9.18;;;5.53;;
24206;SDS011;12351;52.284;9.160;2023-11-21T12:07:50;7.55;;;4.97;;
24206;SDS011;12351;52.284;9.160;2023-11-21T12:10:39;6.78;;;4.67;;
24206;SDS011;12351;52.284;9.160;2023-11-21T12:13:28;7.90;;;4.80;;
24206;SDS011;12351;52.284;9.160;2023-11-21T12:16:16;7.03;;;4.35;;
24206;SDS011;12351;52.284;9.160;2023-11-21T12:19:06;6.42;;;4.55;;
24206;SDS011;12351;52.284;9.160;2023-11-21T12:21:54;7.67;;;4.30;;
24206;SDS011;12351;52.284;9.160;2023-11-21T12:24:42;5.28;;;4.03;;
24206;SDS011;12351;52.284;9.160;2023-11-21T12:27:29;5.22;;;3.90;;
24206;SDS011;12351;52.284;9.160;2023-11-21T12:30:18;8.03;;;4.53;;
24206;SDS011;12351;52.284;9.160;2023-11-21T12:33:09;7.22;;;4.15;;
24206;SDS011;12351;52.284;9.160;2023-11-21T12:35:57;6.25;;;4.17;;
24206;SDS011;12351;52.284;9.160;2023-11-21T12:38:45;5.28;;;3.65;;
24206;SDS011;12351;52.284;9.160;2023-11-21T12:41:33;6.65;;;4.22;;
24206;SDS011;12351;52.284;9.160;2023-11-21T12:44:20;5.47;;;4.03;;
24206;SDS011;12351;52.284;9.160;2023-11-21T12:47:09;5.50;;;4.08;;
24206;SDS011;12351;52.284;9.160;2023-11-21T12:49:59;5.20;;;3.83;;
24206;SDS011;12351;52.284;9.160;2023-11-21T12:52:48;6.80;;;4.58;;
24206;SDS011;12351;52.284;9.160;2023-11-21T12:55:38;6.20;;;4.35;;
24206;SDS011;12351;52.284;9.160;2023-11-21T12:58:27;4.25;;;3.35;;
24206;SDS011;12351;52.284;9.160;2023-11-21T13:01:17;7.22;;;3.65;;
24206;SDS011;12351;52.284;9.160;2023-11-21T13:04:07;5.25;;;3.67;;
24206;SDS011;12351;52.284;9.160;2023-11-21T13:07:02;4.95;;;3.85;;
24206;SDS011;12351;52.284;9.160;2023-11-21T13:09:47;5.45;;;4.00;;
24206;SDS011;12351;52.284;9.160;2023-11-21T13:12:35;6.35;;;4.30;;
24206;SDS011;12351;52.284;9.160;2023-11-21T13:15:24;6.30;;;4.45;;
24206;SDS011;12351;52.284;9.160;2023-11-21T13:18:13;8.13;;;4.70;;
24206;SDS011;12351;52.284;9.160;2023-11-21T13:21:02;152.45;;;84.90;;
24206;SDS011;12351;52.284;9.160;2023-11-21T13:23:53;11.68;;;7.75;;
24206;SDS011;12351;52.284;9.160;2023-11-21T13:26:41;6.10;;;4.58;;
24206;SDS011;12351;52.284;9.160;2023-11-21T13:29:31;8.70;;;4.30;;
24206;SDS011;12351;52.284;9.160;2023-11-21T13:32:20;8.00;;;5.47;;
24206;SDS011;12351;52.284;9.160;2023-11-21T13:35:09;6.58;;;4.70;;
24206;SDS011;12351;52.284;9.160;2023-11-21T13:40:51;10.85;;;5.58;;
24206;SDS011;12351;52.284;9.160;2023-11-21T13:43:41;8.40;;;4.83;;
24206;SDS011;12351;52.284;9.160;2023-11-21T13:46:30;7.92;;;4.75;;
24206;SDS011;12351;52.284;9.160;2023-11-21T13:49:18;5.87;;;4.30;;
24206;SDS011;12351;52.284;9.160;2023-11-21T13:52:07;5.15;;;4.05;;
24206;SDS011;12351;52.284;9.160;2023-11-21T13:54:56;5.55;;;4.20;;
24206;SDS011;12351;52.284;9.160;2023-11-21T13:57:47;7.15;;;4.45;;
24206;SDS011;12351;52.284;9.160;2023-11-21T14:00:38;7.25;;;4.33;;
24206;SDS011;12351;52.284;9.160;2023-11-21T14:03:28;8.08;;;4.72;;
24206;SDS011;12351;52.284;9.160;2023-11-21T14:06:17;5.83;;;4.42;;
24206;SDS011;12351;52.284;9.160;2023-11-21T14:09:07;6.30;;;4.78;;
24206;SDS011;12351;52.284;9.160;2023-11-21T14:11:57;6.97;;;4.40;;
24206;SDS011;12351;52.284;9.160;2023-11-21T14:14:48;6.62;;;4.42;;
24206;SDS011;12351;52.284;9.160;2023-11-21T14:17:37;4.92;;;3.92;;
24206;SDS011;12351;52.284;9.160;2023-11-21T14:20:28;6.25;;;4.22;;
24206;SDS011;12351;52.284;9.160;2023-11-21T14:23:15;6.50;;;4.58;;
24206;SDS011;12351;52.284;9.160;2023-11-21T14:26:04;5.95;;;4.55;;
24206;SDS011;12351;52.284;9.160;2023-11-21T14:28:52;5.40;;;4.12;;
24206;SDS011;12351;52.284;9.160;2023-11-21T14:31:42;6.95;;;4.10;;
24206;SDS011;12351;52.284;9.160;2023-11-21T14:34:29;6.70;;;4.08;;
24206;SDS011;12351;52.284;9.160;2023-11-21T14:37:16;4.67;;;3.50;;
24206;SDS011;12351;52.284;9.160;2023-11-21T14:40:04;6.12;;;4.47;;
24206;SDS011;12351;52.284;9.160;2023-11-21T14:42:53;4.92;;;4.10;;
24206;SDS011;12351;52.284;9.160;2023-11-21T14:45:41;5.92;;;4.28;;
24206;SDS011;12351;52.284;9.160;2023-11-21T14:48:29;4.92;;;3.55;;
24206;SDS011;12351;52.284;9.160;2023-11-21T14:51:22;7.67;;;4.45;;
24206;SDS011;12351;52.284;9.160;2023-11-21T14:54:09;6.60;;;4.10;;
24206;SDS011;12351;52.284;9.160;2023-11-21T14:56:57;5.12;;;3.50;;
24206;SDS011;12351;52.284;9.160;2023-11-21T14:59:45;6.15;;;4.40;;
24206;SDS011;12351;52.284;9.160;2023-11-21T15:02:36;5.30;;;3.85;;
24206;SDS011;12351;52.284;9.160;2023-11-21T15:05:24;6.72;;;4.12;;
24206;SDS011;12351;52.284;9.160;2023-11-21T15:08:12;51.95;;;30.45;;
24206;SDS011;12351;52.284;9.160;2023-11-21T15:11:00;32.10;;;21.00;;
24206;SDS011;12351;52.284;9.160;2023-11-21T15:13:51;5.30;;;4.17;;
24206;SDS011;12351;52.284;9.160;2023-11-21T15:16:39;5.60;;;3.98;;
24206;SDS011;12351;52.284;9.160;2023-11-21T15:19:28;6.72;;;3.40;;
24206;SDS011;12351;52.284;9.160;2023-11-21T15:22:18;7.10;;;3.90;;
24206;SDS011;12351;52.284;9.160;2023-11-21T15:25:07;5.92;;;4.30;;
24206;SDS011;12351;52.284;9.160;2023-11-21T15:27:55;21.70;;;10.18;;
24206;SDS011;12351;52.284;9.160;2023-11-21T15:30:43;26.55;;;17.75;;
24206;SDS011;12351;52.284;9.160;2023-11-21T15:33:31;12.55;;;7.90;;
24206;SDS011;12351;52.284;9.160;2023-11-21T15:36:21;7.08;;;4.90;;
24206;SDS011;12351;52.284;9.160;2023-11-21T15:39:11;9.13;;;4.40;;
24206;SDS011;12351;52.284;9.160;2023-11-21T15:42:00;8.03;;;4.00;;
24206;SDS011;12351;52.284;9.160;2023-11-21T15:44:49;6.70;;;4.10;;
24206;SDS011;12351;52.284;9.160;2023-11-21T15:47:37;5.10;;;4.03;;
24206;SDS011;12351;52.284;9.160;2023-11-21T15:50:24;5.28;;;4.20;;
24206;SDS011;12351;52.284;9.160;2023-11-21T15:53:11;4.87;;;3.92;;
24206;SDS011;12351;52.284;9.160;2023-11-21T15:56:00;4.62;;;3.67;;
24206;SDS011;12351;52.284;9.160;2023-11-21T15:58:49;4.83;;;4.00;;
24206;SDS011;12351;52.284;9.160;2023-11-21T16:01:37;4.97;;;3.75;;
24206;SDS011;12351;52.284;9.160;2023-11-21T16:04:25;6.37;;;4.08;;
24206;SDS011;12351;52.284;9.160;2023-11-21T16:07:13;6.45;;;4.10;;
24206;SDS011;12351;52.284;9.160;2023-11-21T16:10:00;5.15;;;3.67;;
24206;SDS011;12351;52.284;9.160;2023-11-21T16:12:47;4.70;;;3.72;;
24206;SDS011;12351;52.284;9.160;2023-11-21T16:15:36;5.15;;;3.85;;
24206;SDS011;12351;52.284;9.160;2023-11-21T16:18:23;5.72;;;4.00;;
24206;SDS011;12351;52.284;9.160;2023-11-21T16:21:10;5.30;;;3.90;;
24206;SDS011;12351;52.284;9.160;2023-11-21T16:23:59;6.58;;;4.20;;
24206;SDS011;12351;52.284;9.160;2023-11-21T16:26:46;6.03;;;3.85;;
24206;SDS011;12351;52.284;9.160;2023-11-21T16:29:35;5.45;;;4.03;;
24206;SDS011;12351;52.284;9.160;2023-11-21T16:32:23;5.28;;;4.05;;
24206;SDS011;12351;52.284;9.160;2023-11-21T16:35:13;6.20;;;4.17;;
24206;SDS011;12351;52.284;9.160;2023-11-21T16:38:02;6.42;;;4.10;;
24206;SDS011;12351;52.284;9.160;2023-11-21T16:40:53;5.08;;;4.10;;
24206;SDS011;12351;52.284;9.160;2023-11-21T16:43:41;6.22;;;4.30;;
24206;SDS011;12351;52.284;9.160;2023-11-21T16:46:28;5.08;;;3.95;;
24206;SDS011;12351;52.284;9.160;2023-11-21T16:49:16;8.90;;;4.22;;
24206;SDS011;12351;52.284;9.160;2023-11-21T16:52:03;5.58;;;4.17;;
24206;SDS011;12351;52.284;9.160;2023-11-21T16:54:52;6.87;;;4.80;;
24206;SDS011;12351;52.284;9.160;2023-11-21T16:57:40;7.35;;;4.47;;
24206;SDS011;12351;52.284;9.160;2023-11-21T17:00:27;9.38;;;5.22;;
24206;SDS011;12351;52.284;9.160;2023-11-21T17:03:15;95.67;;;69.90;;
24206;SDS011;12351;52.284;9.160;2023-11-21T17:06:04;34.95;;;23.22;;
24206;SDS011;12351;52.284;9.160;2023-11-21T17:08:53;15.32;;;9.60;;